Wenatchee, WA (98801)

9:22 PM PDT on September 01, 2014 (GMT -0700)
3rd and Elliott | Change Station
CLOSE
Current Station
Personal Weather Station
Location: Wenatchee, WA
Elevation: 787 ft
Nearby Weather Stations

Elev 787 ft 47.43 °N, 120.34 °W | Updated 5 seconds ago

Clear
Clear
69.3 °F
Feels Like 69.3 °F
N
4.5
Wind Variable Wind from SW
Gusts 4.5 mph

Today
High -- | Low -- °F
--% Chance of Precip.
Yesterday
High -- | Low -- °F
Precip. -- in
6:20 AM 7:41 PM
Waxing Crescent, 47% visible
Pressure 29.90 in
Visibility 10.0 miles
Clouds Clear
Dew Point 12 °F
Humidity 11%
Rainfall 0.00 in
Snow Depth 0 in , 0 in , 0 in
UV 0 out of 12
Pollen 3.90 out of 12
Air Quality Not available.
Flu Activity Not available.
METAR KEAT 020355Z AUTO 30011KT 10SM CLR 21/04 A2992 RMK AO2 SLP124 T02110044

More Conditions Fewer Conditions

Pressure 29.90 in
Visibility 10.0 miles
Clouds Clear
Dew Point 12 °F
Humidity 11%
Rainfall 0.00 in
Snow Depth 0 in , 0 in , 0 in
UV 0 out of 12
Pollen 3.90 out of 12
Air Quality Not available.
Flu Activity Not available.
METAR KEAT 020355Z AUTO 30011KT 10SM CLR 21/04 A2992 RMK AO2 SLP124 T02110044

More Conditions Fewer Conditions

10-Day Weather Forecast

Almanac

Astronomy

Sep. 01, 2014 Rise Set
Actual Time 6:20 AM PDT 7:41 PM PDT
Civil Twilight 5:48 AM PDT 8:13 PM PDT
Nautical Twilight 5:09 AM PDT 8:51 PM PDT
Astronomical Twilight 4:28 AM PDT 9:32 PM PDT
Moon 1:39 PM PDT (9/1) 11:18 PM PDT (9/1)
Length of Visible Light 14h 24m
Length of Day
13h 21m
Tomorrow will be 3m 18s shorter.
Waxing Crescent, 47% of the Moon is Illuminated
Sep 2
Waxing Crescent
Sep 2
First Quarter
Sep 8
Full
Sep 15
Last Quarter
Sep 24
New

Today's Extremes

State Highs State Lows

Community

WunderPhotos

Upload Photos

1,749,560 photos uploaded!

WunderBlogs® & News

Nearby

Snow Depth

Station Depth Elevation
Upper Wheeler 0 in 4400 ft
Grouse Camp 0 in 5380 ft
Trough 0 in 5300 ft
Sasse Ridge 0 in 4200 ft
Stevens Pass 0 in 4070 ft

Earthquake Activity

City Distance Mag. Time & Date
No recent earthquake activity has been reported nearby.
Minimum magnitude displayed is 2.5.

Coastal Water Temperatures

Place Temperature
No Stations Reporting

Nearby Weather Stations